createdAt,value
2022-07-26T00:00:45.655Z,1.27
2022-07-26T00:03:12.770Z,1.88
2022-07-26T00:05:39.862Z,2.38
2022-07-26T00:08:10.871Z,1.77
2022-07-26T00:10:45.924Z,2.15
2022-07-26T00:13:13.393Z,1.90
2022-07-26T00:15:40.495Z,1.98
2022-07-26T00:18:11.882Z,1.85
2022-07-26T00:20:39.718Z,1.90
2022-07-26T00:23:08.632Z,2.08
2022-07-26T00:25:35.835Z,1.80
2022-07-26T00:28:02.886Z,1.63
2022-07-26T00:30:30.125Z,2.38
2022-07-26T00:32:57.337Z,2.03
2022-07-26T00:35:24.479Z,2.08
2022-07-26T00:37:51.716Z,1.38
2022-07-26T00:40:18.958Z,1.60
2022-07-26T00:42:46.171Z,2.72
2022-07-26T00:45:14.077Z,1.95
2022-07-26T00:47:41.557Z,1.98
2022-07-26T00:50:12.124Z,1.80
2022-07-26T00:52:39.236Z,1.33
2022-07-26T00:55:07.656Z,1.30
2022-07-26T00:57:35.848Z,1.90
2022-07-26T01:00:06.001Z,1.63
2022-07-26T01:02:33.381Z,1.80
2022-07-26T01:05:00.942Z,1.73
2022-07-26T01:07:29.334Z,2.05
2022-07-26T01:09:56.831Z,1.92
2022-07-26T01:12:24.159Z,2.00
2022-07-26T01:14:51.172Z,1.90
2022-07-26T01:17:18.167Z,1.80
2022-07-26T01:19:45.246Z,2.40
2022-07-26T01:22:14.551Z,2.42
2022-07-26T01:24:42.266Z,2.05
2022-07-26T01:27:09.257Z,2.00
2022-07-26T01:29:36.843Z,2.25
2022-07-26T01:32:05.212Z,2.78
2022-07-26T01:34:32.730Z,1.98
2022-07-26T01:36:59.932Z,2.28
2022-07-26T01:39:27.128Z,2.50
2022-07-26T01:41:54.656Z,2.10
2022-07-26T01:44:23.082Z,2.28
2022-07-26T01:46:50.670Z,2.17
2022-07-26T01:49:17.979Z,2.33
2022-07-26T01:51:45.192Z,2.47
2022-07-26T01:54:12.523Z,2.50
2022-07-26T01:56:40.123Z,2.60
2022-07-26T01:59:07.166Z,2.42
2022-07-26T02:01:38.728Z,2.60
2022-07-26T02:04:29.722Z,2.50
2022-07-26T02:06:56.706Z,2.60
2022-07-26T02:09:24.153Z,2.33
2022-07-26T02:11:53.379Z,2.65
2022-07-26T02:14:25.602Z,2.00
2022-07-26T02:16:59.984Z,2.47
2022-07-26T02:19:30.832Z,2.30
2022-07-26T02:21:58.544Z,1.92
2022-07-26T02:24:30.098Z,2.10
2022-07-26T02:26:58.834Z,2.67
2022-07-26T02:29:27.109Z,2.35
2022-07-26T02:31:55.021Z,2.42
2022-07-26T02:34:22.351Z,1.90
2022-07-26T02:36:49.421Z,2.33
2022-07-26T02:39:16.559Z,2.50
2022-07-26T02:41:43.807Z,2.15
2022-07-26T02:44:11.342Z,1.52
2022-07-26T02:46:38.904Z,1.70
2022-07-26T02:49:06.022Z,1.67
2022-07-26T02:51:33.110Z,1.80
2022-07-26T02:54:00.107Z,1.90
2022-07-26T02:56:27.123Z,2.40
2022-07-26T02:58:54.148Z,2.30
2022-07-26T03:01:21.609Z,2.20
2022-07-26T03:03:50.983Z,1.60
2022-07-26T03:06:19.450Z,2.03
2022-07-26T03:08:47.373Z,2.10
2022-07-26T03:11:14.708Z,2.22
2022-07-26T03:13:41.751Z,2.10
2022-07-26T03:16:09.213Z,2.00
2022-07-26T03:18:36.912Z,1.92
2022-07-26T03:21:04.383Z,2.38
2022-07-26T03:23:33.746Z,1.90
2022-07-26T03:26:01.873Z,2.45
2022-07-26T03:28:32.874Z,2.15
2022-07-26T03:31:00.773Z,1.83
2022-07-26T03:33:28.493Z,1.70
2022-07-26T03:35:55.940Z,2.10
2022-07-26T03:38:23.425Z,2.13
2022-07-26T03:40:50.817Z,2.00
2022-07-26T03:43:23.078Z,1.70
2022-07-26T03:45:50.683Z,1.85
2022-07-26T03:48:17.771Z,2.13
2022-07-26T03:50:44.967Z,2.00
2022-07-26T03:53:11.905Z,1.70
2022-07-26T03:55:57.213Z,3.28
2022-07-26T03:58:24.182Z,2.67
2022-07-26T04:00:51.118Z,3.60
2022-07-26T04:03:18.141Z,3.00
2022-07-26T04:05:48.847Z,3.42
2022-07-26T04:08:16.995Z,1.75
2022-07-26T04:10:48.509Z,1.90
2022-07-26T04:13:15.466Z,2.08
2022-07-26T04:15:42.442Z,2.17
2022-07-26T04:18:09.524Z,1.85
2022-07-26T04:20:36.596Z,2.05
2022-07-26T04:23:03.640Z,1.88
2022-07-26T04:25:40.519Z,2.38
2022-07-26T04:28:08.964Z,2.13
2022-07-26T04:30:36.056Z,2.47
2022-07-26T04:33:04.553Z,2.42
2022-07-26T04:35:31.726Z,2.60
2022-07-26T04:37:58.982Z,2.15
2022-07-26T04:40:29.309Z,2.30
2022-07-26T04:42:56.458Z,2.83
2022-07-26T04:45:24.893Z,2.40
2022-07-26T04:47:52.450Z,3.33
2022-07-26T04:50:22.084Z,2.78
2022-07-26T04:52:51.387Z,2.67
2022-07-26T04:55:19.042Z,2.63
2022-07-26T04:57:47.425Z,2.60
2022-07-26T05:00:25.067Z,2.50
2022-07-26T05:02:56.132Z,2.38
2022-07-26T05:05:26.774Z,1.98
2022-07-26T05:07:56.130Z,2.38
2022-07-26T05:10:28.253Z,3.60
2022-07-26T05:12:55.205Z,3.90
2022-07-26T05:15:22.217Z,4.50
2022-07-26T05:17:49.684Z,4.15
2022-07-26T05:20:17.550Z,3.20
2022-07-26T05:22:45.085Z,3.17
2022-07-26T05:25:12.064Z,3.03
2022-07-26T05:27:40.715Z,12.18
2022-07-26T05:30:09.925Z,4.55
2022-07-26T05:32:37.198Z,2.13
2022-07-26T05:35:04.691Z,2.45
2022-07-26T05:37:31.739Z,2.53
2022-07-26T05:39:58.784Z,3.35
2022-07-26T05:42:25.967Z,3.17
2022-07-26T05:44:53.087Z,2.45
2022-07-26T05:47:23.025Z,2.47
2022-07-26T05:49:50.191Z,2.08
2022-07-26T05:52:20.128Z,1.90
2022-07-26T05:54:47.130Z,2.03
2022-07-26T05:57:14.155Z,2.50
2022-07-26T05:59:41.226Z,5.15
2022-07-26T06:02:08.629Z,2.55
2022-07-26T06:04:36.143Z,2.13
2022-07-26T06:07:03.341Z,2.10
2022-07-26T06:09:30.954Z,1.63
2022-07-26T06:11:58.299Z,2.38
2022-07-26T06:14:25.646Z,1.70
2022-07-26T06:16:53.113Z,1.77
2022-07-26T06:19:20.453Z,2.00
2022-07-26T06:21:47.863Z,1.98
2022-07-26T06:24:15.187Z,1.48
2022-07-26T06:26:42.548Z,1.80
2022-07-26T06:29:09.867Z,1.50
2022-07-26T06:31:37.582Z,2.30
2022-07-26T06:34:05.171Z,1.73
2022-07-26T06:36:32.262Z,1.60
2022-07-26T06:38:59.266Z,4.97
2022-07-26T06:41:26.333Z,2.05
2022-07-26T06:43:53.389Z,1.88
2022-07-26T06:46:21.338Z,1.60
2022-07-26T06:48:52.815Z,1.58
2022-07-26T06:51:24.369Z,2.22
2022-07-26T06:53:51.941Z,1.80
2022-07-26T06:56:19.880Z,1.85
2022-07-26T06:58:47.557Z,1.40
2022-07-26T07:01:51.903Z,1.40
2022-07-26T07:04:02.189Z,1.73
2022-07-26T07:06:29.503Z,1.63
2022-07-26T07:08:56.835Z,1.33
2022-07-26T07:11:24.694Z,1.58
2022-07-26T07:13:53.386Z,2.10
2022-07-26T07:16:20.835Z,1.70
2022-07-26T07:18:48.010Z,1.27
2022-07-26T07:21:14.969Z,1.98
2022-07-26T07:23:41.967Z,1.52
2022-07-26T07:26:09.357Z,1.25
2022-07-26T07:28:38.627Z,1.85
2022-07-26T07:31:06.101Z,1.42
2022-07-26T07:33:43.524Z,1.70
2022-07-26T07:36:20.291Z,1.40
2022-07-26T07:38:47.980Z,1.35
2022-07-26T07:41:15.033Z,1.35
2022-07-26T07:43:41.921Z,1.45
2022-07-26T07:46:08.883Z,1.52
2022-07-26T07:48:37.713Z,1.60
2022-07-26T07:51:05.763Z,1.65
2022-07-26T07:53:35.104Z,2.88
2022-07-26T07:56:02.595Z,1.30
2022-07-26T07:58:29.560Z,1.40
2022-07-26T08:00:56.543Z,1.60
2022-07-26T08:03:24.123Z,1.40
2022-07-26T08:06:07.579Z,1.90
2022-07-26T08:08:35.317Z,1.27
2022-07-26T08:11:02.835Z,1.40
2022-07-26T08:13:31.079Z,1.67
2022-07-26T08:15:59.317Z,2.30
2022-07-26T08:18:28.104Z,1.40
2022-07-26T08:20:55.932Z,1.30
2022-07-26T08:23:23.008Z,1.25
2022-07-26T08:26:00.667Z,1.65
2022-07-26T08:28:47.435Z,1.58
2022-07-26T08:31:15.683Z,1.52
2022-07-26T08:33:46.557Z,1.40
2022-07-26T08:36:14.969Z,1.63
2022-07-26T08:38:44.990Z,1.60
2022-07-26T08:41:14.939Z,1.58
2022-07-26T08:43:52.163Z,1.30
2022-07-26T08:46:25.270Z,1.50
2022-07-26T08:48:54.852Z,1.30
2022-07-26T08:51:24.103Z,1.40
2022-07-26T08:54:02.352Z,1.40
2022-07-26T08:56:36.601Z,1.40
2022-07-26T08:59:19.138Z,1.67
2022-07-26T09:01:58.233Z,1.30
2022-07-26T09:04:34.562Z,1.48
2022-07-26T09:07:08.411Z,1.50
2022-07-26T09:09:54.568Z,1.60
2022-07-26T09:12:22.447Z,1.30
2022-07-26T09:14:50.068Z,1.80
2022-07-26T09:17:18.616Z,1.10
2022-07-26T09:19:46.413Z,1.33
2022-07-26T09:22:16.948Z,1.23
2022-07-26T09:24:48.259Z,1.58
2022-07-26T09:27:17.503Z,1.25
2022-07-26T09:29:46.028Z,1.02
2022-07-26T09:32:18.070Z,1.50
2022-07-26T09:34:52.703Z,1.20
2022-07-26T09:37:34.004Z,1.55
2022-07-26T09:40:02.193Z,1.27
2022-07-26T09:42:30.120Z,1.30
2022-07-26T09:44:58.215Z,2.45
2022-07-26T09:47:38.384Z,1.50
2022-07-26T09:50:19.311Z,1.20
2022-07-26T09:53:03.815Z,1.40
2022-07-26T09:55:40.924Z,1.40
2022-07-26T09:58:16.412Z,1.00
2022-07-26T10:00:44.241Z,1.02
2022-07-26T10:03:11.595Z,1.30
2022-07-26T10:05:39.050Z,1.45
2022-07-26T10:08:08.029Z,1.40
2022-07-26T10:10:55.721Z,1.20
2022-07-26T10:13:23.356Z,1.45
2022-07-26T10:15:51.773Z,1.35
2022-07-26T10:21:41.621Z,1.70
2022-07-26T10:24:28.931Z,1.23
2022-07-26T10:26:55.962Z,1.20
2022-07-26T10:29:26.616Z,1.23
2022-07-26T10:31:56.507Z,1.20
2022-07-26T10:34:34.058Z,1.55
2022-07-26T10:37:09.509Z,1.67
2022-07-26T10:39:37.303Z,1.30
2022-07-26T10:42:09.685Z,1.50
2022-07-26T10:44:42.153Z,0.80
2022-07-26T10:47:09.124Z,1.10
2022-07-26T10:49:43.623Z,1.15
2022-07-26T10:52:12.663Z,1.30
2022-07-26T10:55:00.476Z,1.20
2022-07-26T10:57:42.702Z,1.10
2022-07-26T11:00:14.986Z,1.00
2022-07-26T11:02:44.127Z,1.42
2022-07-26T11:05:13.386Z,1.20
2022-07-26T11:07:54.286Z,1.38
2022-07-26T11:10:38.186Z,1.50
2022-07-26T11:13:09.332Z,1.40
2022-07-26T11:15:42.803Z,1.15
2022-07-26T11:18:11.931Z,1.15
2022-07-26T11:20:39.434Z,1.05
2022-07-26T11:23:20.077Z,1.33
2022-07-26T11:26:17.048Z,1.10
2022-07-26T11:28:54.193Z,1.27
2022-07-26T11:31:23.703Z,1.00
2022-07-26T11:34:18.217Z,1.23
2022-07-26T11:36:46.298Z,1.10
2022-07-26T11:39:15.839Z,1.35
2022-07-26T11:41:43.934Z,1.05
2022-07-26T11:44:18.521Z,1.10
2022-07-26T11:46:49.167Z,1.20
2022-07-26T11:49:22.878Z,0.80
2022-07-26T11:51:53.816Z,1.30
2022-07-26T11:54:25.263Z,1.50
2022-07-26T11:56:56.836Z,1.45
2022-07-26T11:59:28.928Z,1.50
2022-07-26T12:01:57.424Z,1.10
2022-07-26T12:04:29.120Z,1.20
2022-07-26T12:06:57.549Z,1.33
2022-07-26T12:09:34.175Z,0.90
2022-07-26T12:12:02.741Z,1.30
2022-07-26T12:14:39.981Z,1.15
2022-07-26T12:17:14.016Z,1.42
2022-07-26T12:19:41.821Z,1.20
2022-07-26T12:22:12.659Z,1.25
2022-07-26T12:24:40.685Z,1.23
2022-07-26T12:27:11.931Z,1.40
2022-07-26T12:29:40.429Z,1.38
2022-07-26T12:32:34.095Z,1.27
2022-07-26T12:35:03.017Z,1.10
2022-07-26T12:37:39.927Z,1.38
2022-07-26T12:40:10.590Z,1.60
2022-07-26T12:42:39.401Z,1.45
2022-07-26T12:45:08.716Z,1.40
2022-07-26T12:50:04.448Z,1.45
2022-07-26T12:52:32.013Z,1.50
2022-07-26T12:54:59.403Z,1.30
2022-07-26T12:57:27.457Z,1.50
2022-07-26T12:59:55.475Z,1.25
2022-07-26T13:02:22.808Z,2.03
2022-07-26T13:04:50.609Z,1.50
2022-07-26T13:07:19.038Z,1.70
2022-07-26T13:09:47.408Z,1.38
2022-07-26T13:12:16.094Z,1.30
2022-07-26T13:14:43.899Z,1.40
2022-07-26T13:17:11.603Z,1.60
2022-07-26T13:19:39.124Z,1.40
2022-07-26T13:22:07.167Z,1.65
2022-07-26T13:24:37.778Z,1.50
2022-07-26T13:27:06.785Z,1.42
2022-07-26T13:29:35.049Z,1.80
2022-07-26T13:32:03.326Z,1.50
2022-07-26T13:34:34.927Z,1.63
2022-07-26T13:37:08.405Z,1.23
2022-07-26T13:39:39.228Z,1.10
2022-07-26T13:42:06.650Z,1.60
2022-07-26T13:44:34.201Z,1.38
2022-07-26T13:47:02.270Z,1.30
2022-07-26T13:49:30.331Z,1.35
2022-07-26T13:51:57.730Z,1.50
2022-07-26T13:54:32.132Z,1.58
2022-07-26T13:57:00.388Z,1.08
2022-07-26T13:59:28.077Z,1.40
2022-07-26T14:01:55.971Z,1.40
2022-07-26T14:04:24.163Z,1.30
2022-07-26T14:06:51.604Z,1.70
2022-07-26T14:09:19.490Z,1.70
2022-07-26T14:11:46.856Z,1.38
2022-07-26T14:14:14.937Z,1.40
2022-07-26T14:16:42.576Z,1.35
2022-07-26T14:19:10.119Z,1.25
2022-07-26T14:21:47.583Z,1.52
2022-07-26T14:24:26.140Z,1.42
2022-07-26T14:26:58.478Z,1.20
2022-07-26T14:29:27.360Z,1.13
2022-07-26T14:31:56.740Z,1.58
2022-07-26T14:34:24.188Z,1.17
2022-07-26T14:36:51.533Z,1.27
2022-07-26T14:39:18.888Z,1.45
2022-07-26T14:41:46.437Z,1.85
2022-07-26T14:44:15.668Z,1.83
2022-07-26T14:46:43.939Z,1.17
2022-07-26T14:49:11.046Z,1.50
2022-07-26T14:51:38.279Z,1.40
2022-07-26T14:54:05.885Z,2.10
2022-07-26T14:56:32.826Z,1.10
2022-07-26T14:58:59.775Z,1.35
2022-07-26T15:01:27.993Z,1.52
2022-07-26T15:03:58.716Z,1.50
2022-07-26T15:06:26.364Z,1.33
2022-07-26T15:08:54.982Z,1.23
2022-07-26T15:11:22.006Z,1.30
2022-07-26T15:13:49.483Z,1.95
2022-07-26T15:16:19.339Z,1.20
2022-07-26T15:18:48.404Z,1.63
2022-07-26T15:21:20.677Z,1.10
2022-07-26T15:23:47.894Z,1.58
2022-07-26T15:26:17.671Z,1.58
2022-07-26T15:28:44.688Z,1.60
2022-07-26T15:31:14.111Z,2.45
2022-07-26T15:33:41.119Z,1.30
2022-07-26T15:36:08.144Z,1.60
2022-07-26T15:38:35.114Z,1.65
2022-07-26T15:41:02.297Z,1.75
2022-07-26T15:43:48.143Z,1.67
2022-07-26T15:46:17.663Z,1.50
2022-07-26T15:48:45.390Z,1.70
2022-07-26T15:51:14.143Z,1.88
2022-07-26T15:53:46.586Z,1.70
2022-07-26T15:56:14.983Z,1.40
2022-07-26T15:58:42.362Z,1.25
2022-07-26T16:01:13.103Z,1.48
2022-07-26T16:03:40.079Z,1.67
2022-07-26T16:06:07.717Z,1.20
2022-07-26T16:08:43.093Z,1.80
2022-07-26T16:11:22.950Z,1.27
2022-07-26T16:13:50.022Z,1.63
2022-07-26T16:16:17.151Z,1.20
2022-07-26T16:18:44.294Z,1.27
2022-07-26T16:21:12.551Z,1.20
2022-07-26T16:23:39.580Z,1.30
2022-07-26T16:26:08.509Z,1.30
2022-07-26T16:28:37.657Z,1.70
2022-07-26T16:31:05.923Z,1.60
2022-07-26T16:33:33.454Z,1.45
2022-07-26T16:36:05.964Z,1.60
2022-07-26T16:38:35.031Z,1.80
2022-07-26T16:41:03.761Z,1.85
2022-07-26T16:43:32.872Z,2.15
2022-07-26T16:46:00.284Z,1.80
2022-07-26T16:48:27.845Z,2.97
2022-07-26T16:50:55.798Z,3.85
2022-07-26T16:53:23.368Z,3.00
2022-07-26T16:55:52.104Z,2.70
2022-07-26T16:58:20.136Z,1.90
2022-07-26T17:00:47.942Z,1.45
2022-07-26T17:03:16.078Z,3.80
2022-07-26T17:05:46.886Z,2.40
2022-07-26T17:08:15.258Z,2.05
2022-07-26T17:10:44.957Z,1.63
2022-07-26T17:13:13.682Z,1.50
2022-07-26T17:15:41.083Z,1.40
2022-07-26T17:18:08.472Z,1.70
2022-07-26T17:20:37.666Z,2.58
2022-07-26T17:23:07.702Z,1.63
2022-07-26T17:25:35.068Z,1.65
2022-07-26T17:28:03.915Z,2.17
2022-07-26T17:30:32.183Z,2.47
2022-07-26T17:32:59.626Z,2.05
2022-07-26T17:35:27.506Z,2.47
2022-07-26T17:37:56.438Z,1.63
2022-07-26T17:40:27.697Z,1.70
2022-07-26T17:42:56.649Z,1.92
2022-07-26T17:45:24.017Z,2.80
2022-07-26T17:47:52.685Z,4.25
2022-07-26T17:50:36.036Z,4.10
2022-07-26T17:53:06.683Z,3.05
2022-07-26T17:55:34.683Z,2.20
2022-07-26T17:58:01.957Z,2.75
2022-07-26T18:00:29.553Z,2.58
2022-07-26T18:02:57.963Z,2.58
2022-07-26T18:05:32.545Z,2.47
2022-07-26T18:08:01.264Z,2.53
2022-07-26T18:10:28.733Z,2.50
2022-07-26T18:12:56.149Z,2.90
2022-07-26T18:15:24.268Z,3.50
2022-07-26T18:17:51.587Z,2.80
2022-07-26T18:20:19.269Z,2.50
2022-07-26T18:22:50.204Z,2.90
2022-07-26T18:25:17.585Z,2.45
2022-07-26T18:27:45.062Z,2.90
2022-07-26T18:30:12.650Z,2.97
2022-07-26T18:32:39.948Z,2.63
2022-07-26T18:35:08.716Z,3.10
2022-07-26T18:37:36.010Z,2.50
2022-07-26T18:40:03.562Z,2.67
2022-07-26T18:42:31.051Z,2.65
2022-07-26T18:44:58.430Z,2.83
2022-07-26T18:47:26.703Z,2.28
2022-07-26T18:49:54.131Z,2.60
2022-07-26T18:52:31.785Z,3.20
2022-07-26T18:55:01.478Z,2.72
2022-07-26T18:57:28.701Z,2.75
2022-07-26T18:59:55.625Z,3.22
2022-07-26T19:02:22.743Z,3.53
2022-07-26T19:04:49.757Z,4.13
2022-07-26T19:07:18.306Z,2.80
2022-07-26T19:09:45.268Z,2.58
2022-07-26T19:12:12.267Z,2.67
2022-07-26T19:14:39.451Z,2.53
2022-07-26T19:17:09.944Z,2.80
2022-07-26T19:19:38.175Z,2.45
2022-07-26T19:22:05.579Z,2.75
2022-07-26T19:24:32.615Z,2.50
2022-07-26T19:26:59.686Z,2.80
2022-07-26T19:29:27.851Z,3.40
2022-07-26T19:31:55.174Z,2.60
2022-07-26T19:34:24.708Z,2.60
2022-07-26T19:39:22.832Z,2.70
2022-07-26T19:41:51.763Z,3.13
2022-07-26T19:44:19.612Z,2.95
2022-07-26T19:46:47.841Z,2.83
2022-07-26T19:49:17.320Z,3.90
2022-07-26T19:51:45.034Z,2.47
2022-07-26T19:54:13.566Z,2.25
2022-07-26T19:56:42.059Z,2.03
2022-07-26T19:59:09.612Z,2.00
2022-07-26T20:01:37.250Z,2.58
2022-07-26T20:04:04.678Z,2.20
2022-07-26T20:06:32.095Z,2.30
2022-07-26T20:08:59.421Z,2.33
2022-07-26T20:11:28.263Z,2.55
2022-07-26T20:13:55.749Z,2.85
2022-07-26T20:16:23.403Z,2.50
2022-07-26T20:18:50.775Z,2.42
2022-07-26T20:21:18.078Z,3.17
2022-07-26T20:23:45.440Z,2.35
2022-07-26T20:26:14.406Z,2.70
2022-07-26T20:28:42.344Z,2.47
2022-07-26T20:31:09.786Z,2.72
2022-07-26T20:33:37.173Z,2.67
2022-07-26T20:36:04.569Z,2.95
2022-07-26T20:38:31.970Z,2.67
2022-07-26T20:40:59.320Z,3.10
2022-07-26T20:43:31.618Z,3.45
2022-07-26T20:46:01.156Z,3.22
2022-07-26T20:48:28.521Z,3.08
2022-07-26T20:50:55.838Z,2.85
2022-07-26T20:53:23.210Z,3.00
2022-07-26T20:55:50.569Z,3.10
2022-07-26T20:58:18.216Z,3.70
2022-07-26T21:00:45.538Z,2.83
2022-07-26T21:03:16.821Z,2.85
2022-07-26T21:05:44.631Z,3.20
2022-07-26T21:08:13.057Z,2.70
2022-07-26T21:10:41.789Z,2.67
2022-07-26T21:13:09.989Z,2.60
2022-07-26T21:15:37.478Z,3.05
2022-07-26T21:18:04.980Z,2.70
2022-07-26T21:20:32.297Z,2.67
2022-07-26T21:23:12.943Z,3.05
2022-07-26T21:25:43.941Z,2.83
2022-07-26T21:28:11.261Z,2.97
2022-07-26T21:30:38.615Z,3.13
2022-07-26T21:33:05.947Z,3.40
2022-07-26T21:35:33.355Z,3.53
2022-07-26T21:38:00.775Z,4.28
2022-07-26T21:40:28.289Z,4.63
2022-07-26T21:42:55.700Z,4.07
2022-07-26T21:45:23.219Z,3.63
2022-07-26T21:47:50.561Z,4.05
2022-07-26T21:50:17.932Z,3.65
2022-07-26T21:52:45.260Z,3.80
2022-07-26T21:55:17.748Z,3.92
2022-07-26T21:57:45.576Z,3.67
2022-07-26T22:00:14.088Z,4.00
2022-07-26T22:02:41.549Z,3.33
2022-07-26T22:05:29.123Z,3.53
2022-07-26T22:07:56.547Z,3.50
2022-07-26T22:10:23.963Z,3.70
2022-07-26T22:12:51.356Z,3.88
2022-07-26T22:15:18.808Z,3.88
2022-07-26T22:17:46.179Z,3.47
2022-07-26T22:20:13.716Z,3.10
2022-07-26T22:22:41.083Z,3.92
2022-07-26T22:25:08.766Z,4.00
2022-07-26T22:27:36.111Z,3.40
2022-07-26T22:30:04.224Z,4.05
2022-07-26T22:32:31.548Z,3.85
2022-07-26T22:34:59.003Z,3.70
2022-07-26T22:37:26.369Z,3.55
2022-07-26T22:39:53.701Z,3.90
2022-07-26T22:42:21.042Z,3.67
2022-07-26T22:44:48.345Z,3.80
2022-07-26T22:47:15.720Z,3.95
2022-07-26T22:49:43.119Z,4.32
2022-07-26T22:52:10.530Z,3.85
2022-07-26T22:54:37.855Z,4.15
2022-07-26T22:57:05.305Z,4.10
2022-07-26T22:59:32.628Z,4.05
2022-07-26T23:02:01.345Z,4.85
2022-07-26T23:04:28.734Z,4.70
2022-07-26T23:06:56.256Z,4.15
2022-07-26T23:09:26.833Z,3.03
2022-07-26T23:11:54.203Z,3.03
2022-07-26T23:14:21.508Z,2.60
2022-07-26T23:16:48.882Z,2.28
2022-07-26T23:19:16.245Z,2.08
2022-07-26T23:21:43.569Z,1.58
2022-07-26T23:24:10.941Z,1.90
2022-07-26T23:26:38.349Z,1.70
2022-07-26T23:29:05.977Z,2.30
2022-07-26T23:31:33.038Z,1.50
2022-07-26T23:34:00.400Z,1.60
2022-07-26T23:36:28.552Z,1.60
2022-07-26T23:38:56.655Z,1.77
2022-07-26T23:41:24.559Z,1.45
2022-07-26T23:43:52.443Z,1.52
2022-07-26T23:46:19.857Z,1.48
2022-07-26T23:48:47.165Z,1.55
2022-07-26T23:51:14.731Z,1.48
2022-07-26T23:53:42.106Z,1.50
2022-07-26T23:56:09.838Z,1.60
2022-07-26T23:58:37.713Z,1.60
